createdAt,value
2023-02-26T00:02:15.801Z,22.08
2023-02-26T00:07:16.022Z,21.44
2023-02-26T00:12:14.207Z,21.22
2023-02-26T00:17:14.723Z,19.89
2023-02-26T00:22:12.765Z,20.60
2023-02-26T00:27:11.956Z,20.95
2023-02-26T00:32:11.251Z,21.25
2023-02-26T00:37:10.474Z,20.54
2023-02-26T00:42:09.644Z,21.79
2023-02-26T00:47:09.810Z,21.34
2023-02-26T00:52:07.984Z,20.45
2023-02-26T00:57:08.214Z,21.80
2023-02-26T01:02:06.376Z,21.81
2023-02-26T01:07:06.534Z,21.20
2023-02-26T01:12:06.746Z,22.20
2023-02-26T01:17:03.921Z,19.10
2023-02-26T01:22:03.124Z,19.10
2023-02-26T01:27:02.295Z,18.99
2023-02-26T01:32:01.605Z,19.29
2023-02-26T01:37:01.672Z,19.50
2023-02-26T01:42:00.866Z,18.97
2023-02-26T01:46:59.079Z,18.66
2023-02-26T01:51:58.312Z,17.21
2023-02-26T01:56:58.518Z,16.49
2023-02-26T02:01:57.760Z,16.08
2023-02-26T02:06:55.949Z,15.97
2023-02-26T02:11:55.166Z,15.87
2023-02-26T02:16:55.371Z,15.98
2023-02-26T02:21:53.554Z,16.59
2023-02-26T02:26:52.786Z,16.39
2023-02-26T02:31:53.140Z,16.28
2023-02-26T02:36:51.209Z,15.98
2023-02-26T02:41:50.412Z,15.66
2023-02-26T02:46:49.660Z,15.66
2023-02-26T02:51:48.947Z,15.86
2023-02-26T02:56:49.146Z,16.17
2023-02-26T03:01:47.327Z,16.47
2023-02-26T03:06:46.496Z,16.68
2023-02-26T03:11:46.689Z,16.89
2023-02-26T03:16:45.914Z,17.21
2023-02-26T03:21:46.126Z,17.31
2023-02-26T03:26:44.302Z,17.72
2023-02-26T03:31:42.680Z,17.83
2023-02-26T03:36:41.889Z,17.62
2023-02-26T03:41:41.195Z,17.11
2023-02-26T03:46:40.515Z,16.69
2023-02-26T03:51:39.813Z,16.08
2023-02-26T03:56:39.136Z,15.88
2023-02-26T04:01:38.463Z,15.77
2023-02-26T04:06:38.791Z,15.58
2023-02-26T04:11:38.116Z,15.48
2023-02-26T04:16:38.435Z,15.69
2023-02-26T04:21:36.735Z,15.58
2023-02-26T04:26:36.031Z,15.78
2023-02-26T04:31:34.362Z,15.79
2023-02-26T04:36:34.513Z,15.99
2023-02-26T04:41:33.810Z,15.69
2023-02-26T04:46:32.149Z,15.89
2023-02-26T04:51:30.253Z,16.00
2023-02-26T04:56:30.579Z,16.51
2023-02-26T05:01:29.913Z,16.51
2023-02-26T05:06:29.240Z,16.52
2023-02-26T05:11:29.547Z,16.83
2023-02-26T05:16:28.277Z,17.13
2023-02-26T05:21:27.153Z,16.62
2023-02-26T05:26:26.735Z,15.48
2023-02-26T05:31:26.870Z,14.77
2023-02-26T05:36:27.264Z,14.37
2023-02-26T05:41:24.198Z,14.17
2023-02-26T05:46:23.759Z,14.58
2023-02-26T05:51:22.814Z,15.19
2023-02-26T05:56:23.297Z,15.50
2023-02-26T06:01:21.353Z,16.11
2023-02-26T06:06:20.659Z,16.73
2023-02-26T06:11:19.994Z,16.83
2023-02-26T06:16:18.324Z,17.14
2023-02-26T06:21:18.424Z,16.63
2023-02-26T06:26:17.731Z,15.40
2023-02-26T06:31:18.092Z,14.58
2023-02-26T06:36:16.211Z,14.07
2023-02-26T06:41:15.530Z,14.18
2023-02-26T06:46:15.979Z,14.07
2023-02-26T06:51:14.092Z,14.28
2023-02-26T06:56:15.413Z,14.79
2023-02-26T07:01:13.796Z,15.31
2023-02-26T07:06:27.039Z,15.72
2023-02-26T07:11:11.129Z,16.43
2023-02-26T07:16:10.462Z,16.44
2023-02-26T07:21:10.691Z,16.24
2023-02-26T07:26:08.995Z,16.54
2023-02-26T07:31:08.273Z,16.64
2023-02-26T07:36:08.420Z,15.83
2023-02-26T07:41:06.712Z,15.11
2023-02-26T07:46:06.033Z,14.09
2023-02-26T07:51:05.351Z,13.68
2023-02-26T07:56:04.645Z,13.68
2023-02-26T08:01:04.993Z,13.57
2023-02-26T08:06:05.103Z,13.79
2023-02-26T08:11:02.405Z,14.30
2023-02-26T08:16:02.816Z,15.70
2023-02-26T08:21:00.918Z,15.44
2023-02-26T08:26:00.278Z,16.14
2023-02-26T08:31:00.663Z,15.94
2023-02-26T08:36:02.899Z,15.93
2023-02-26T08:40:58.013Z,15.33
2023-02-26T08:45:58.336Z,14.71
2023-02-26T08:50:56.673Z,14.09
2023-02-26T08:55:55.820Z,13.59
2023-02-26T09:00:55.009Z,13.19
2023-02-26T09:05:54.135Z,13.29
2023-02-26T09:10:53.445Z,13.29
2023-02-26T09:15:52.794Z,13.59
2023-02-26T09:20:51.912Z,13.39
2023-02-26T09:25:51.230Z,13.90
2023-02-26T09:30:52.552Z,14.11
2023-02-26T09:35:50.880Z,14.61
2023-02-26T09:40:50.198Z,14.52
2023-02-26T09:45:48.577Z,14.72
2023-02-26T09:50:47.730Z,14.51
2023-02-26T09:55:46.862Z,13.80
2023-02-26T10:00:46.220Z,12.70
2023-02-26T10:05:45.367Z,12.43
2023-02-26T10:10:45.547Z,12.49
2023-02-26T10:15:43.691Z,11.80
2023-02-26T10:20:42.866Z,12.50
2023-02-26T10:25:44.018Z,14.16
2023-02-26T10:30:41.392Z,14.18
2023-02-26T10:35:40.581Z,13.83
2023-02-26T10:40:39.889Z,13.54
2023-02-26T10:45:39.252Z,13.09
2023-02-26T10:50:39.001Z,13.18
2023-02-26T10:55:37.338Z,12.94
2023-02-26T11:00:41.773Z,13.12
2023-02-26T11:05:36.019Z,12.40
2023-02-26T11:10:35.137Z,12.40
2023-02-26T11:15:34.549Z,12.49
2023-02-26T11:20:34.935Z,12.19
2023-02-26T11:25:34.408Z,12.08
2023-02-26T11:30:32.174Z,12.27
2023-02-26T11:35:32.542Z,12.26
2023-02-26T11:40:30.529Z,12.16
2023-02-26T11:45:30.962Z,12.16
2023-02-26T11:50:28.954Z,11.87
2023-02-26T11:55:28.291Z,12.36
2023-02-26T12:00:27.943Z,12.55
2023-02-26T12:05:26.824Z,12.66
2023-02-26T12:10:26.123Z,12.76
2023-02-26T12:15:25.413Z,12.76
2023-02-26T12:20:24.789Z,12.66
2023-02-26T12:25:24.906Z,12.95
2023-02-26T12:30:23.267Z,12.76
2023-02-26T12:35:22.690Z,12.85
2023-02-26T12:40:21.834Z,12.65
2023-02-26T12:45:22.356Z,12.75
2023-02-26T12:50:21.116Z,12.55
2023-02-26T12:55:19.576Z,12.55
2023-02-26T13:00:19.063Z,12.65
2023-02-26T13:05:18.907Z,12.74
2023-02-26T13:10:18.318Z,12.54
2023-02-26T13:15:17.316Z,12.44
2023-02-26T13:20:15.973Z,12.43
2023-02-26T13:25:15.090Z,12.43
2023-02-26T13:30:14.429Z,12.34
2023-02-26T13:35:15.339Z,12.24
2023-02-26T13:40:13.841Z,12.34
2023-02-26T13:45:11.743Z,12.54
2023-02-26T13:50:12.147Z,12.45
2023-02-26T13:55:10.243Z,12.74
2023-02-26T14:00:09.723Z,12.64
2023-02-26T14:05:09.639Z,12.54
2023-02-26T14:10:08.073Z,12.33
2023-02-26T14:15:08.542Z,12.43
2023-02-26T14:20:07.773Z,12.43
2023-02-26T14:25:06.055Z,12.33
2023-02-26T14:30:04.457Z,12.34
2023-02-26T14:35:05.677Z,12.54
2023-02-26T14:40:04.003Z,12.74
2023-02-26T14:45:04.813Z,12.95
2023-02-26T14:50:02.388Z,12.84
2023-02-26T14:55:01.668Z,12.64
2023-02-26T15:00:00.899Z,12.43
2023-02-26T15:04:59.864Z,12.53
2023-02-26T15:09:59.513Z,12.13
2023-02-26T15:14:59.884Z,12.23
2023-02-26T15:20:00.030Z,12.13
2023-02-26T15:24:57.996Z,12.23
2023-02-26T15:29:56.444Z,12.33
2023-02-26T15:34:55.809Z,12.54
2023-02-26T15:39:54.883Z,13.15
2023-02-26T15:44:57.073Z,13.66
2023-02-26T15:49:53.420Z,13.96
2023-02-26T15:54:52.793Z,14.06
2023-02-26T15:59:51.831Z,13.87
2023-02-26T16:04:52.629Z,13.55
2023-02-26T16:09:52.238Z,13.24
2023-02-26T16:14:49.564Z,12.95
2023-02-26T16:19:48.649Z,12.84
2023-02-26T16:24:48.651Z,12.65
2023-02-26T16:29:47.311Z,12.74
2023-02-26T16:34:47.405Z,12.54
2023-02-26T16:39:45.425Z,12.63
2023-02-26T16:44:45.105Z,12.54
2023-02-26T16:49:46.894Z,12.64
2023-02-26T16:54:43.445Z,12.85
2023-02-26T16:59:42.805Z,14.36
2023-02-26T17:04:41.925Z,14.97
2023-02-26T17:09:40.911Z,14.57
2023-02-26T17:14:40.593Z,14.67
2023-02-26T17:19:40.383Z,15.35
2023-02-26T17:24:38.645Z,15.34
2023-02-26T17:29:38.244Z,14.64
2023-02-26T17:34:37.582Z,14.62
2023-02-26T17:39:37.851Z,14.32
2023-02-26T17:44:35.991Z,13.92
2023-02-26T17:49:35.242Z,10.41
2023-02-26T17:54:34.708Z,13.30
2023-02-26T17:59:33.868Z,14.91
2023-02-26T18:04:35.811Z,16.18
2023-02-26T18:09:32.873Z,17.10
2023-02-26T18:14:31.357Z,17.63
2023-02-26T18:19:32.391Z,18.33
2023-02-26T18:24:29.763Z,18.05
2023-02-26T18:29:28.987Z,17.33
2023-02-26T18:34:29.125Z,17.33
2023-02-26T18:39:29.486Z,18.24
2023-02-26T18:44:26.796Z,17.84
2023-02-26T18:49:25.032Z,13.75
2023-02-26T18:54:25.198Z,13.74
2023-02-26T18:59:26.203Z,13.62
2023-02-26T19:04:23.272Z,13.31
2023-02-26T19:09:23.960Z,12.99
2023-02-26T19:14:23.319Z,12.59
2023-02-26T19:19:21.933Z,11.87
2023-02-26T19:24:23.066Z,11.46
2023-02-26T19:29:20.932Z,11.45
2023-02-26T19:34:19.677Z,11.24
2023-02-26T19:39:19.112Z,11.15
2023-02-26T19:44:18.496Z,11.65
2023-02-26T19:49:17.644Z,12.16
2023-02-26T19:54:20.233Z,12.16
2023-02-26T19:59:14.856Z,12.16
2023-02-26T20:04:15.340Z,11.54
2023-02-26T20:09:12.504Z,11.04
2023-02-26T20:14:12.681Z,10.94
2023-02-26T20:19:10.818Z,11.24
2023-02-26T20:24:12.242Z,11.85
2023-02-26T20:29:10.439Z,12.56
2023-02-26T20:34:10.662Z,13.57
2023-02-26T20:39:09.594Z,13.26
2023-02-26T20:44:08.139Z,12.45
2023-02-26T20:49:08.386Z,12.24
2023-02-26T20:54:06.593Z,11.93
2023-02-26T20:59:05.780Z,12.02
2023-02-26T21:04:05.944Z,11.82
2023-02-26T21:09:02.943Z,11.72
2023-02-26T21:14:05.236Z,11.93
2023-02-26T21:19:02.550Z,11.82
2023-02-26T21:24:04.544Z,11.62
2023-02-26T21:29:00.227Z,11.52
2023-02-26T21:34:23.722Z,11.43
2023-02-26T21:39:00.356Z,11.34
2023-02-26T21:43:58.654Z,11.94
2023-02-26T21:48:59.633Z,12.26
2023-02-26T21:53:56.968Z,13.15
2023-02-26T21:58:55.082Z,13.15
2023-02-26T22:03:55.413Z,12.44
2023-02-26T22:08:54.718Z,12.13
2023-02-26T22:13:54.057Z,11.83
2023-02-26T22:18:55.202Z,11.43
2023-02-26T22:23:52.535Z,11.53
2023-02-26T22:28:51.668Z,11.23
2023-02-26T22:33:50.827Z,11.23
2023-02-26T22:38:49.966Z,11.03
2023-02-26T22:43:49.127Z,10.63
2023-02-26T22:48:49.280Z,11.23
2023-02-26T22:53:48.400Z,11.53
2023-02-26T22:58:48.719Z,11.95
2023-02-26T23:03:46.056Z,13.17
2023-02-26T23:08:46.181Z,13.67
2023-02-26T23:13:44.471Z,14.18
2023-02-26T23:18:44.777Z,14.58
2023-02-26T23:23:44.073Z,14.89
2023-02-26T23:28:43.346Z,14.38
2023-02-26T23:33:41.640Z,13.96
2023-02-26T23:38:40.945Z,13.76
2023-02-26T23:43:40.263Z,13.85
2023-02-26T23:48:39.651Z,17.49
2023-02-26T23:53:40.820Z,24.43
2023-02-26T23:58:38.962Z,26.53
